createdAt,value
2023-04-09T00:00:57.631Z,20
2023-04-09T00:06:16.182Z,20
2023-04-09T00:11:57.618Z,22
2023-04-09T00:17:16.126Z,19
2023-04-09T00:22:57.603Z,20
2023-04-09T00:28:16.114Z,22
2023-04-09T00:33:16.257Z,22
2023-04-09T00:38:57.604Z,19
2023-04-09T00:44:16.142Z,19
2023-04-09T00:49:16.163Z,17
2023-04-09T00:54:57.613Z,15
2023-04-09T00:59:57.641Z,15
2023-04-09T01:05:16.177Z,18
2023-04-09T01:10:57.624Z,15
2023-04-09T01:16:16.185Z,16
2023-04-09T01:21:16.143Z,17
2023-04-09T01:26:16.151Z,16
2023-04-09T01:31:57.600Z,18
2023-04-09T01:37:16.124Z,18
2023-04-09T01:42:16.144Z,17
2023-04-09T01:47:16.139Z,14
2023-04-09T01:52:57.612Z,14
2023-04-09T01:58:16.154Z,12
2023-04-09T02:03:58.012Z,12
2023-04-09T02:09:16.121Z,12
2023-04-09T02:14:16.178Z,11
2023-04-09T02:19:57.606Z,13
2023-04-09T02:25:16.120Z,12
2023-04-09T02:30:16.124Z,11
2023-04-09T02:35:16.139Z,10
2023-04-09T02:40:57.605Z,11
2023-04-09T02:45:57.675Z,10
2023-04-09T02:51:16.154Z,11
2023-04-09T02:56:57.633Z,13
2023-04-09T03:02:16.293Z,12
2023-04-09T03:07:16.153Z,12
2023-04-09T03:12:57.632Z,15
2023-04-09T03:17:57.731Z,15
2023-04-09T03:22:57.676Z,15
2023-04-09T03:28:16.148Z,16
2023-04-09T03:33:57.618Z,15
2023-04-09T03:38:57.638Z,13
2023-04-09T03:43:57.680Z,14
2023-04-09T03:49:16.156Z,12
2023-04-09T03:54:57.625Z,11
2023-04-09T04:00:16.144Z,12
2023-04-09T04:05:57.610Z,11
2023-04-09T04:11:16.141Z,10
2023-04-09T04:16:16.170Z,12
2023-04-09T04:21:16.162Z,12
2023-04-09T04:26:57.611Z,11
2023-04-09T04:31:57.649Z,11
2023-04-09T04:37:16.123Z,12
2023-04-09T04:42:16.194Z,12
2023-04-09T04:47:57.649Z,11
2023-04-09T04:52:57.613Z,12
2023-04-09T04:58:16.129Z,11
2023-04-09T05:03:16.364Z,11
2023-04-09T05:08:57.615Z,11
2023-04-09T05:14:16.145Z,11
2023-04-09T05:19:16.197Z,14
2023-04-09T05:24:57.597Z,12
2023-04-09T05:29:59.638Z,12
2023-04-09T05:35:16.156Z,12
2023-04-09T05:40:57.600Z,12
2023-04-09T05:46:16.177Z,12
2023-04-09T05:51:16.170Z,12
2023-04-09T05:56:57.601Z,11
2023-04-09T06:01:57.644Z,11
2023-04-09T06:07:16.154Z,12
2023-04-09T06:12:57.618Z,11
2023-04-09T06:17:59.412Z,11
2023-04-09T06:23:16.133Z,11
2023-04-09T06:28:57.718Z,10
2023-04-09T06:33:57.661Z,11
2023-04-09T06:39:16.141Z,12
2023-04-09T06:44:16.147Z,11
2023-04-09T06:49:16.173Z,11
2023-04-09T06:54:57.608Z,12
2023-04-09T06:59:57.610Z,10
2023-04-09T07:04:57.622Z,10
2023-04-09T07:10:16.181Z,11
2023-04-09T07:15:57.644Z,9
2023-04-09T07:21:16.168Z,10
2023-04-09T07:26:34.695Z,9
2023-04-09T07:31:57.696Z,10
2023-04-09T07:36:57.607Z,10
2023-04-09T07:41:57.634Z,9
2023-04-09T07:46:57.668Z,10
2023-04-09T07:52:16.163Z,11
2023-04-09T07:57:57.699Z,10
2023-04-09T08:03:16.494Z,11
2023-04-09T08:08:57.871Z,10
2023-04-09T08:14:16.288Z,11
2023-04-09T08:19:57.649Z,11
2023-04-09T08:24:57.641Z,11
2023-04-09T08:30:18.227Z,10
2023-04-09T08:35:57.647Z,11
2023-04-09T08:41:16.138Z,9
2023-04-09T08:46:16.174Z,9
2023-04-09T08:51:57.666Z,11
2023-04-09T08:56:57.718Z,11
2023-04-09T09:02:16.218Z,11
2023-04-09T09:07:57.641Z,8
2023-04-09T09:13:16.200Z,9
2023-04-09T09:18:16.171Z,9
2023-04-09T09:23:57.631Z,9
2023-04-09T09:28:57.634Z,10
2023-04-09T09:34:16.152Z,9
2023-04-09T09:39:16.162Z,8
2023-04-09T09:44:16.199Z,8
2023-04-09T09:49:57.628Z,7
2023-04-09T09:54:57.649Z,8
2023-04-09T10:00:17.280Z,8
2023-04-09T10:05:16.182Z,9
2023-04-09T10:10:57.665Z,7
2023-04-09T10:16:16.236Z,8
2023-04-09T10:22:19.556Z,6
2023-04-09T10:27:57.649Z,6
2023-04-09T10:33:16.197Z,7
2023-04-09T10:38:57.684Z,6
2023-04-09T10:44:16.208Z,6
2023-04-09T10:49:57.650Z,5
2023-04-09T10:54:57.694Z,6
2023-04-09T11:00:16.188Z,6
2023-04-09T11:05:16.241Z,6
2023-04-09T11:10:57.669Z,5
2023-04-09T11:16:23.219Z,6
2023-04-09T11:22:09.074Z,6
2023-04-09T11:27:16.193Z,6
2023-04-09T11:32:16.212Z,6
2023-04-09T11:37:57.674Z,6
2023-04-09T11:43:16.189Z,6
2023-04-09T11:48:16.215Z,6
2023-04-09T11:53:16.199Z,6
2023-04-09T11:58:57.664Z,6
2023-04-09T12:03:57.844Z,6
2023-04-09T12:09:16.198Z,6
2023-04-09T12:14:16.191Z,6
2023-04-09T12:19:16.228Z,5
2023-04-09T12:24:57.701Z,6
2023-04-09T12:30:16.189Z,6
2023-04-09T12:35:16.238Z,6
2023-04-09T12:40:57.684Z,5
2023-04-09T12:45:57.702Z,6
2023-04-09T12:50:57.717Z,5
2023-04-09T12:56:16.218Z,6
2023-04-09T13:01:16.313Z,6
2023-04-09T13:06:57.715Z,5
2023-04-09T13:11:57.759Z,6
2023-04-09T13:17:16.336Z,6
2023-04-09T13:22:16.269Z,6
2023-04-09T13:27:57.689Z,6
2023-04-09T13:33:16.260Z,6
2023-04-09T13:38:57.693Z,5
2023-04-09T13:44:16.240Z,6
2023-04-09T13:49:57.726Z,6
2023-04-09T13:55:16.200Z,6
2023-04-09T14:00:16.231Z,5
2023-04-09T14:05:16.231Z,5
2023-04-09T14:10:57.709Z,5
2023-04-09T14:16:16.246Z,5
2023-04-09T14:21:16.237Z,5
2023-04-09T14:26:16.240Z,5
2023-04-09T14:31:58.031Z,4
2023-04-09T14:37:16.217Z,5
2023-04-09T14:43:13.537Z,5
2023-04-09T14:48:16.234Z,5
2023-04-09T14:53:57.713Z,4
2023-04-09T14:59:16.198Z,4
2023-04-09T15:04:16.395Z,4
2023-04-09T15:09:16.250Z,4
2023-04-09T15:14:57.724Z,4
2023-04-09T15:20:16.244Z,4
2023-04-09T15:25:57.732Z,4
2023-04-09T15:31:16.262Z,4
2023-04-09T15:36:16.364Z,4
2023-04-09T15:41:57.722Z,4
2023-04-09T15:46:57.758Z,4
2023-04-09T15:52:58.653Z,4
2023-04-09T15:58:05.460Z,4
2023-04-09T16:03:06.043Z,4
2023-04-09T16:08:58.604Z,4
2023-04-09T16:13:58.777Z,4
2023-04-09T16:19:05.447Z,4
2023-04-09T16:24:58.702Z,4
2023-04-09T16:30:05.803Z,4
2023-04-09T16:35:58.724Z,3
2023-04-09T16:40:58.680Z,4
2023-04-09T16:46:05.618Z,4
2023-04-09T16:51:58.795Z,4
2023-04-09T16:57:05.427Z,4
2023-04-09T17:02:06.510Z,4
2023-04-09T17:07:58.636Z,4
2023-04-09T17:13:05.954Z,4
2023-04-09T17:18:06.220Z,4
2023-04-09T17:23:58.643Z,4
2023-04-09T17:28:58.736Z,4
2023-04-09T17:34:05.918Z,3
2023-04-09T17:39:58.711Z,4
2023-04-09T17:45:05.741Z,4
2023-04-09T17:50:58.728Z,4
2023-04-09T17:56:05.833Z,4
2023-04-09T18:01:58.993Z,6
2023-04-09T18:07:06.118Z,5
2023-04-09T18:12:58.694Z,8
2023-04-09T18:17:59.023Z,6
2023-04-09T18:23:58.667Z,7
2023-04-09T18:29:01.010Z,6
2023-04-09T18:34:58.652Z,5
2023-04-09T18:40:00.172Z,6
2023-04-09T18:45:04.321Z,5
2023-04-09T18:50:06.144Z,5
2023-04-09T18:55:58.752Z,5
2023-04-09T19:01:05.417Z,6
2023-04-09T19:06:05.929Z,10
2023-04-09T19:11:58.724Z,6
2023-04-09T19:16:58.744Z,5
2023-04-09T19:22:05.446Z,6
2023-04-09T19:27:05.701Z,5
2023-04-09T19:32:05.964Z,5
2023-04-09T19:37:58.679Z,6
2023-04-09T19:42:58.729Z,6
2023-04-09T19:48:06.411Z,6
2023-04-09T19:53:58.670Z,5
2023-04-09T19:58:58.741Z,6
2023-04-09T20:04:05.527Z,7
2023-04-09T20:09:05.496Z,13
2023-04-09T20:14:06.029Z,12
2023-04-09T20:19:58.732Z,11
2023-04-09T20:24:58.741Z,12
2023-04-09T20:29:58.778Z,12
2023-04-09T20:35:58.816Z,10
2023-04-09T20:40:58.744Z,10
2023-04-09T20:46:06.369Z,10
2023-04-09T20:51:06.243Z,9
2023-04-09T20:56:58.668Z,8
2023-04-09T21:01:58.978Z,8
2023-04-09T21:07:05.449Z,8
2023-04-09T21:12:05.460Z,8
2023-04-09T21:17:06.213Z,7
2023-04-09T21:22:58.749Z,8
2023-04-09T21:28:05.985Z,8
2023-04-09T21:33:58.654Z,7
2023-04-09T21:38:59.072Z,8
2023-04-09T21:44:05.463Z,8
2023-04-09T21:49:05.548Z,9
2023-04-09T21:54:05.738Z,8
2023-04-09T21:59:05.813Z,10
2023-04-09T22:04:58.714Z,10
2023-04-09T22:09:58.746Z,10
2023-04-09T22:15:05.513Z,7
2023-04-09T22:20:58.700Z,8
2023-04-09T22:25:58.709Z,7
2023-04-09T22:31:06.270Z,7
2023-04-09T22:36:58.677Z,7
2023-04-09T22:41:58.752Z,6
2023-04-09T22:47:05.764Z,6
2023-04-09T22:52:06.003Z,7
2023-04-09T22:57:58.683Z,9
2023-04-09T23:02:58.928Z,9
2023-04-09T23:07:58.716Z,9
2023-04-09T23:12:58.737Z,10
2023-04-09T23:18:05.857Z,10
2023-04-09T23:23:58.750Z,10
2023-04-09T23:29:05.461Z,9
2023-04-09T23:34:06.098Z,11
2023-04-09T23:39:58.759Z,10
2023-04-09T23:45:06.087Z,9
2023-04-09T23:50:58.751Z,10
2023-04-09T23:55:58.753Z,9
